sensor_id;sensor_type;location;lat;lon;timestamp;P1;durP1;ratioP1;P2;durP2;ratioP2
26822;SDS011;14852;51.910;8.878;2023-12-04T00:01:18;21.42;;;13.68;;
26822;SDS011;14852;51.910;8.878;2023-12-04T00:03:44;23.48;;;13.63;;
26822;SDS011;14852;51.910;8.878;2023-12-04T00:06:10;22.65;;;13.88;;
26822;SDS011;14852;51.910;8.878;2023-12-04T00:08:37;18.38;;;12.38;;
26822;SDS011;14852;51.910;8.878;2023-12-04T00:11:06;20.10;;;12.85;;
26822;SDS011;14852;51.910;8.878;2023-12-04T00:13:32;19.75;;;12.73;;
26822;SDS011;14852;51.910;8.878;2023-12-04T00:15:58;21.13;;;12.40;;
26822;SDS011;14852;51.910;8.878;2023-12-04T00:18:24;18.15;;;11.55;;
26822;SDS011;14852;51.910;8.878;2023-12-04T00:20:50;19.48;;;13.15;;
26822;SDS011;14852;51.910;8.878;2023-12-04T00:23:16;18.15;;;11.70;;
26822;SDS011;14852;51.910;8.878;2023-12-04T00:25:42;22.08;;;13.20;;
26822;SDS011;14852;51.910;8.878;2023-12-04T00:28:08;20.77;;;12.68;;
26822;SDS011;14852;51.910;8.878;2023-12-04T00:30:34;16.83;;;10.73;;
26822;SDS011;14852;51.910;8.878;2023-12-04T00:32:59;20.63;;;12.57;;
26822;SDS011;14852;51.910;8.878;2023-12-04T00:35:25;19.50;;;10.98;;
26822;SDS011;14852;51.910;8.878;2023-12-04T00:37:51;18.45;;;11.15;;
26822;SDS011;14852;51.910;8.878;2023-12-04T00:40:17;16.30;;;11.27;;
26822;SDS011;14852;51.910;8.878;2023-12-04T00:42:42;17.80;;;11.88;;
26822;SDS011;14852;51.910;8.878;2023-12-04T00:45:08;15.98;;;10.65;;
26822;SDS011;14852;51.910;8.878;2023-12-04T00:47:34;21.20;;;11.73;;
26822;SDS011;14852;51.910;8.878;2023-12-04T00:50:00;20.48;;;12.57;;
26822;SDS011;14852;51.910;8.878;2023-12-04T00:52:25;18.45;;;12.20;;
26822;SDS011;14852;51.910;8.878;2023-12-04T00:54:51;20.15;;;11.68;;
26822;SDS011;14852;51.910;8.878;2023-12-04T00:57:18;18.50;;;11.02;;
26822;SDS011;14852;51.910;8.878;2023-12-04T00:59:44;18.52;;;11.50;;
26822;SDS011;14852;51.910;8.878;2023-12-04T01:02:10;20.20;;;11.50;;
26822;SDS011;14852;51.910;8.878;2023-12-04T01:04:35;17.40;;;10.82;;
26822;SDS011;14852;51.910;8.878;2023-12-04T01:07:04;17.38;;;11.48;;
26822;SDS011;14852;51.910;8.878;2023-12-04T01:09:30;17.77;;;11.93;;
26822;SDS011;14852;51.910;8.878;2023-12-04T01:11:56;14.75;;;9.60;;
26822;SDS011;14852;51.910;8.878;2023-12-04T01:14:21;14.73;;;10.00;;
26822;SDS011;14852;51.910;8.878;2023-12-04T01:16:47;18.10;;;10.48;;
26822;SDS011;14852;51.910;8.878;2023-12-04T01:19:13;17.02;;;10.27;;
26822;SDS011;14852;51.910;8.878;2023-12-04T01:21:39;17.30;;;11.43;;
26822;SDS011;14852;51.910;8.878;2023-12-04T01:24:04;18.95;;;10.18;;
26822;SDS011;14852;51.910;8.878;2023-12-04T01:26:30;18.27;;;10.95;;
26822;SDS011;14852;51.910;8.878;2023-12-04T01:28:56;15.00;;;11.05;;
26822;SDS011;14852;51.910;8.878;2023-12-04T01:31:22;19.38;;;10.50;;
26822;SDS011;14852;51.910;8.878;2023-12-04T01:33:48;18.00;;;9.90;;
26822;SDS011;14852;51.910;8.878;2023-12-04T01:36:13;14.75;;;10.05;;
26822;SDS011;14852;51.910;8.878;2023-12-04T01:38:39;17.15;;;10.73;;
26822;SDS011;14852;51.910;8.878;2023-12-04T01:41:05;14.45;;;9.65;;
26822;SDS011;14852;51.910;8.878;2023-12-04T01:43:31;14.45;;;9.55;;
26822;SDS011;14852;51.910;8.878;2023-12-04T01:45:57;16.48;;;10.07;;
26822;SDS011;14852;51.910;8.878;2023-12-04T01:48:25;17.80;;;10.27;;
26822;SDS011;14852;51.910;8.878;2023-12-04T01:50:53;18.80;;;10.75;;
26822;SDS011;14852;51.910;8.878;2023-12-04T01:53:20;16.27;;;9.45;;
26822;SDS011;14852;51.910;8.878;2023-12-04T01:55:47;16.70;;;9.65;;
26822;SDS011;14852;51.910;8.878;2023-12-04T01:58:14;14.75;;;10.48;;
26822;SDS011;14852;51.910;8.878;2023-12-04T02:00:40;20.13;;;11.70;;
26822;SDS011;14852;51.910;8.878;2023-12-04T02:03:05;19.92;;;11.93;;
26822;SDS011;14852;51.910;8.878;2023-12-04T02:05:32;20.67;;;11.55;;
26822;SDS011;14852;51.910;8.878;2023-12-04T02:08:00;23.48;;;13.77;;
26822;SDS011;14852;51.910;8.878;2023-12-04T02:10:26;20.08;;;13.07;;
26822;SDS011;14852;51.910;8.878;2023-12-04T02:12:52;21.83;;;12.07;;
26822;SDS011;14852;51.910;8.878;2023-12-04T02:15:17;20.35;;;12.75;;
26822;SDS011;14852;51.910;8.878;2023-12-04T02:17:43;20.15;;;12.23;;
26822;SDS011;14852;51.910;8.878;2023-12-04T02:20:09;19.15;;;11.98;;
26822;SDS011;14852;51.910;8.878;2023-12-04T02:22:38;17.77;;;12.25;;
26822;SDS011;14852;51.910;8.878;2023-12-04T02:25:04;19.15;;;12.75;;
26822;SDS011;14852;51.910;8.878;2023-12-04T02:30:18;17.58;;;12.40;;
26822;SDS011;14852;51.910;8.878;2023-12-04T02:32:48;21.17;;;12.48;;
26822;SDS011;14852;51.910;8.878;2023-12-04T02:35:16;24.15;;;14.95;;
26822;SDS011;14852;51.910;8.878;2023-12-04T02:37:48;24.73;;;15.02;;
26822;SDS011;14852;51.910;8.878;2023-12-04T02:40:15;18.45;;;12.43;;
26822;SDS011;14852;51.910;8.878;2023-12-04T02:42:40;22.88;;;14.25;;
26822;SDS011;14852;51.910;8.878;2023-12-04T02:45:06;23.30;;;14.27;;
26822;SDS011;14852;51.910;8.878;2023-12-04T02:47:33;21.38;;;13.40;;
26822;SDS011;14852;51.910;8.878;2023-12-04T02:49:58;20.98;;;12.85;;
26822;SDS011;14852;51.910;8.878;2023-12-04T02:52:24;18.60;;;12.45;;
26822;SDS011;14852;51.910;8.878;2023-12-04T02:54:50;18.40;;;13.23;;
26822;SDS011;14852;51.910;8.878;2023-12-04T02:57:15;18.67;;;12.93;;
26822;SDS011;14852;51.910;8.878;2023-12-04T02:59:41;24.92;;;15.02;;
26822;SDS011;14852;51.910;8.878;2023-12-04T03:02:07;19.52;;;13.10;;
26822;SDS011;14852;51.910;8.878;2023-12-04T03:04:33;23.80;;;12.77;;
26822;SDS011;14852;51.910;8.878;2023-12-04T03:06:59;18.80;;;12.88;;
26822;SDS011;14852;51.910;8.878;2023-12-04T03:09:25;18.50;;;12.23;;
26822;SDS011;14852;51.910;8.878;2023-12-04T03:11:51;18.92;;;12.13;;
26822;SDS011;14852;51.910;8.878;2023-12-04T03:14:17;18.40;;;12.35;;
26822;SDS011;14852;51.910;8.878;2023-12-04T03:16:43;19.38;;;12.30;;
26822;SDS011;14852;51.910;8.878;2023-12-04T03:19:08;19.30;;;12.13;;
26822;SDS011;14852;51.910;8.878;2023-12-04T03:21:34;20.38;;;13.38;;
26822;SDS011;14852;51.910;8.878;2023-12-04T03:24:00;19.52;;;11.23;;
26822;SDS011;14852;51.910;8.878;2023-12-04T03:26:26;17.88;;;11.82;;
26822;SDS011;14852;51.910;8.878;2023-12-04T03:28:51;20.83;;;12.30;;
26822;SDS011;14852;51.910;8.878;2023-12-04T03:31:17;19.35;;;11.55;;
26822;SDS011;14852;51.910;8.878;2023-12-04T03:33:43;21.65;;;12.23;;
26822;SDS011;14852;51.910;8.878;2023-12-04T03:36:09;18.98;;;12.02;;
26822;SDS011;14852;51.910;8.878;2023-12-04T03:38:34;17.25;;;11.35;;
26822;SDS011;14852;51.910;8.878;2023-12-04T03:41:01;16.05;;;10.13;;
26822;SDS011;14852;51.910;8.878;2023-12-04T03:43:26;19.30;;;12.40;;
26822;SDS011;14852;51.910;8.878;2023-12-04T03:45:52;19.83;;;12.18;;
26822;SDS011;14852;51.910;8.878;2023-12-04T03:48:18;17.48;;;11.98;;
26822;SDS011;14852;51.910;8.878;2023-12-04T03:50:43;21.33;;;12.20;;
26822;SDS011;14852;51.910;8.878;2023-12-04T03:53:09;18.70;;;11.20;;
26822;SDS011;14852;51.910;8.878;2023-12-04T03:55:35;18.92;;;11.20;;
26822;SDS011;14852;51.910;8.878;2023-12-04T03:58:01;18.60;;;11.95;;
26822;SDS011;14852;51.910;8.878;2023-12-04T04:00:28;18.02;;;12.25;;
26822;SDS011;14852;51.910;8.878;2023-12-04T04:02:54;18.83;;;10.50;;
26822;SDS011;14852;51.910;8.878;2023-12-04T04:05:19;19.35;;;11.82;;
26822;SDS011;14852;51.910;8.878;2023-12-04T04:07:48;15.93;;;10.60;;
26822;SDS011;14852;51.910;8.878;2023-12-04T04:10:14;20.42;;;10.93;;
26822;SDS011;14852;51.910;8.878;2023-12-04T04:12:40;18.05;;;11.27;;
26822;SDS011;14852;51.910;8.878;2023-12-04T04:15:06;14.98;;;9.65;;
26822;SDS011;14852;51.910;8.878;2023-12-04T04:17:32;15.07;;;9.98;;
26822;SDS011;14852;51.910;8.878;2023-12-04T04:19:58;18.80;;;11.20;;
26822;SDS011;14852;51.910;8.878;2023-12-04T04:22:24;16.08;;;10.55;;
26822;SDS011;14852;51.910;8.878;2023-12-04T04:24:50;17.00;;;10.27;;
26822;SDS011;14852;51.910;8.878;2023-12-04T04:27:16;13.63;;;9.30;;
26822;SDS011;14852;51.910;8.878;2023-12-04T04:29:42;17.15;;;10.93;;
26822;SDS011;14852;51.910;8.878;2023-12-04T04:32:07;14.88;;;9.73;;
26822;SDS011;14852;51.910;8.878;2023-12-04T04:34:33;15.90;;;11.15;;
26822;SDS011;14852;51.910;8.878;2023-12-04T04:36:59;14.93;;;10.50;;
26822;SDS011;14852;51.910;8.878;2023-12-04T04:39:24;16.08;;;10.13;;
26822;SDS011;14852;51.910;8.878;2023-12-04T04:41:50;13.00;;;9.25;;
26822;SDS011;14852;51.910;8.878;2023-12-04T04:44:16;16.65;;;10.30;;
26822;SDS011;14852;51.910;8.878;2023-12-04T04:46:42;16.08;;;10.27;;
26822;SDS011;14852;51.910;8.878;2023-12-04T04:49:07;14.57;;;9.93;;
26822;SDS011;14852;51.910;8.878;2023-12-04T04:51:33;16.23;;;10.10;;
26822;SDS011;14852;51.910;8.878;2023-12-04T04:54:00;14.93;;;10.30;;
26822;SDS011;14852;51.910;8.878;2023-12-04T04:56:26;13.57;;;9.57;;
26822;SDS011;14852;51.910;8.878;2023-12-04T04:58:52;15.18;;;9.23;;
26822;SDS011;14852;51.910;8.878;2023-12-04T05:01:18;15.13;;;10.05;;
26822;SDS011;14852;51.910;8.878;2023-12-04T05:03:43;15.38;;;9.30;;
26822;SDS011;14852;51.910;8.878;2023-12-04T05:06:09;12.98;;;9.57;;
26822;SDS011;14852;51.910;8.878;2023-12-04T05:08:35;14.85;;;9.80;;
26822;SDS011;14852;51.910;8.878;2023-12-04T05:11:01;16.00;;;9.07;;
26822;SDS011;14852;51.910;8.878;2023-12-04T05:13:26;16.95;;;11.68;;
26822;SDS011;14852;51.910;8.878;2023-12-04T05:15:52;15.85;;;10.60;;
26822;SDS011;14852;51.910;8.878;2023-12-04T05:18:18;13.32;;;9.15;;
26822;SDS011;14852;51.910;8.878;2023-12-04T05:20:44;14.90;;;10.05;;
26822;SDS011;14852;51.910;8.878;2023-12-04T05:23:09;16.33;;;10.43;;
26822;SDS011;14852;51.910;8.878;2023-12-04T05:25:35;15.43;;;10.13;;
26822;SDS011;14852;51.910;8.878;2023-12-04T05:28:01;16.38;;;10.10;;
26822;SDS011;14852;51.910;8.878;2023-12-04T05:30:26;15.85;;;9.63;;
26822;SDS011;14852;51.910;8.878;2023-12-04T05:32:52;16.65;;;11.20;;
26822;SDS011;14852;51.910;8.878;2023-12-04T05:35:19;16.95;;;10.60;;
26822;SDS011;14852;51.910;8.878;2023-12-04T05:37:45;16.42;;;10.07;;
26822;SDS011;14852;51.910;8.878;2023-12-04T05:40:11;12.68;;;9.18;;
26822;SDS011;14852;51.910;8.878;2023-12-04T05:42:37;18.02;;;10.77;;
26822;SDS011;14852;51.910;8.878;2023-12-04T05:45:03;14.60;;;9.45;;
26822;SDS011;14852;51.910;8.878;2023-12-04T05:47:29;13.52;;;9.32;;
26822;SDS011;14852;51.910;8.878;2023-12-04T05:49:55;14.60;;;8.88;;
26822;SDS011;14852;51.910;8.878;2023-12-04T05:52:21;14.10;;;9.15;;
26822;SDS011;14852;51.910;8.878;2023-12-04T05:54:47;14.13;;;9.52;;
26822;SDS011;14852;51.910;8.878;2023-12-04T05:57:13;17.02;;;10.27;;
26822;SDS011;14852;51.910;8.878;2023-12-04T05:59:38;12.68;;;8.90;;
26822;SDS011;14852;51.910;8.878;2023-12-04T06:02:04;16.15;;;9.05;;
26822;SDS011;14852;51.910;8.878;2023-12-04T06:04:30;14.98;;;8.95;;
26822;SDS011;14852;51.910;8.878;2023-12-04T06:06:56;15.95;;;9.63;;
26822;SDS011;14852;51.910;8.878;2023-12-04T06:09:22;14.02;;;9.93;;
26822;SDS011;14852;51.910;8.878;2023-12-04T06:11:47;15.25;;;9.95;;
26822;SDS011;14852;51.910;8.878;2023-12-04T06:14:13;13.43;;;9.13;;
26822;SDS011;14852;51.910;8.878;2023-12-04T06:16:39;13.90;;;9.93;;
26822;SDS011;14852;51.910;8.878;2023-12-04T06:19:04;17.98;;;12.00;;
26822;SDS011;14852;51.910;8.878;2023-12-04T06:21:30;16.25;;;10.75;;
26822;SDS011;14852;51.910;8.878;2023-12-04T06:23:56;15.32;;;10.05;;
26822;SDS011;14852;51.910;8.878;2023-12-04T06:26:23;17.20;;;11.32;;
26822;SDS011;14852;51.910;8.878;2023-12-04T06:28:49;13.40;;;9.25;;
26822;SDS011;14852;51.910;8.878;2023-12-04T06:31:15;15.73;;;10.20;;
26822;SDS011;14852;51.910;8.878;2023-12-04T06:33:41;14.68;;;10.20;;
26822;SDS011;14852;51.910;8.878;2023-12-04T06:36:08;16.30;;;9.77;;
26822;SDS011;14852;51.910;8.878;2023-12-04T06:38:38;15.13;;;9.93;;
26822;SDS011;14852;51.910;8.878;2023-12-04T06:41:05;14.18;;;9.07;;
26822;SDS011;14852;51.910;8.878;2023-12-04T06:43:33;14.10;;;9.27;;
26822;SDS011;14852;51.910;8.878;2023-12-04T06:45:59;14.77;;;9.75;;
26822;SDS011;14852;51.910;8.878;2023-12-04T06:48:25;13.77;;;8.68;;
26822;SDS011;14852;51.910;8.878;2023-12-04T06:50:51;14.63;;;8.68;;
26822;SDS011;14852;51.910;8.878;2023-12-04T06:53:17;12.27;;;8.27;;
26822;SDS011;14852;51.910;8.878;2023-12-04T06:55:42;19.00;;;10.90;;
26822;SDS011;14852;51.910;8.878;2023-12-04T06:58:09;13.27;;;9.10;;
26822;SDS011;14852;51.910;8.878;2023-12-04T07:00:35;14.63;;;9.93;;
26822;SDS011;14852;51.910;8.878;2023-12-04T07:03:00;14.43;;;9.63;;
26822;SDS011;14852;51.910;8.878;2023-12-04T07:05:26;13.60;;;9.00;;
26822;SDS011;14852;51.910;8.878;2023-12-04T07:07:52;13.90;;;8.82;;
26822;SDS011;14852;51.910;8.878;2023-12-04T07:10:18;17.73;;;11.10;;
26822;SDS011;14852;51.910;8.878;2023-12-04T07:12:43;14.30;;;9.82;;
26822;SDS011;14852;51.910;8.878;2023-12-04T07:15:10;14.13;;;9.07;;
26822;SDS011;14852;51.910;8.878;2023-12-04T07:17:36;14.73;;;9.25;;
26822;SDS011;14852;51.910;8.878;2023-12-04T07:20:05;16.20;;;10.93;;
26822;SDS011;14852;51.910;8.878;2023-12-04T07:22:34;14.75;;;8.98;;
26822;SDS011;14852;51.910;8.878;2023-12-04T07:25:00;13.93;;;9.35;;
26822;SDS011;14852;51.910;8.878;2023-12-04T07:27:25;14.05;;;9.27;;
26822;SDS011;14852;51.910;8.878;2023-12-04T07:29:51;14.43;;;10.15;;
26822;SDS011;14852;51.910;8.878;2023-12-04T07:32:17;17.55;;;11.20;;
26822;SDS011;14852;51.910;8.878;2023-12-04T07:34:43;14.73;;;8.82;;
26822;SDS011;14852;51.910;8.878;2023-12-04T07:37:09;14.07;;;9.25;;
26822;SDS011;14852;51.910;8.878;2023-12-04T07:39:35;16.95;;;10.90;;
26822;SDS011;14852;51.910;8.878;2023-12-04T07:42:01;14.43;;;9.40;;
26822;SDS011;14852;51.910;8.878;2023-12-04T07:44:27;16.35;;;10.63;;
26822;SDS011;14852;51.910;8.878;2023-12-04T07:46:52;13.95;;;8.50;;
26822;SDS011;14852;51.910;8.878;2023-12-04T07:49:18;13.13;;;10.40;;
26822;SDS011;14852;51.910;8.878;2023-12-04T07:51:44;15.25;;;10.63;;
26822;SDS011;14852;51.910;8.878;2023-12-04T07:54:10;12.40;;;9.32;;
26822;SDS011;14852;51.910;8.878;2023-12-04T07:56:36;13.98;;;9.80;;
26822;SDS011;14852;51.910;8.878;2023-12-04T07:59:02;16.67;;;9.75;;
26822;SDS011;14852;51.910;8.878;2023-12-04T08:01:28;15.98;;;10.25;;
26822;SDS011;14852;51.910;8.878;2023-12-04T08:03:53;16.38;;;10.30;;
26822;SDS011;14852;51.910;8.878;2023-12-04T08:06:19;16.25;;;9.73;;
26822;SDS011;14852;51.910;8.878;2023-12-04T08:08:45;15.13;;;9.48;;
26822;SDS011;14852;51.910;8.878;2023-12-04T08:11:11;17.17;;;10.90;;
26822;SDS011;14852;51.910;8.878;2023-12-04T08:13:38;17.40;;;11.00;;
26822;SDS011;14852;51.910;8.878;2023-12-04T08:16:04;15.93;;;10.88;;
26822;SDS011;14852;51.910;8.878;2023-12-04T08:18:37;18.42;;;11.18;;
26822;SDS011;14852;51.910;8.878;2023-12-04T08:21:03;16.23;;;10.60;;
26822;SDS011;14852;51.910;8.878;2023-12-04T08:23:29;15.18;;;10.57;;
26822;SDS011;14852;51.910;8.878;2023-12-04T08:25:55;15.43;;;9.65;;
26822;SDS011;14852;51.910;8.878;2023-12-04T08:28:22;13.43;;;9.73;;
26822;SDS011;14852;51.910;8.878;2023-12-04T08:30:47;14.20;;;10.23;;
26822;SDS011;14852;51.910;8.878;2023-12-04T08:33:13;18.30;;;10.60;;
26822;SDS011;14852;51.910;8.878;2023-12-04T08:35:39;14.38;;;9.85;;
26822;SDS011;14852;51.910;8.878;2023-12-04T08:38:05;14.85;;;9.90;;
26822;SDS011;14852;51.910;8.878;2023-12-04T08:40:31;15.82;;;10.43;;
26822;SDS011;14852;51.910;8.878;2023-12-04T08:42:57;14.75;;;9.73;;
26822;SDS011;14852;51.910;8.878;2023-12-04T08:45:23;14.23;;;9.32;;
26822;SDS011;14852;51.910;8.878;2023-12-04T08:47:49;16.52;;;11.43;;
26822;SDS011;14852;51.910;8.878;2023-12-04T08:50:15;15.40;;;10.02;;
26822;SDS011;14852;51.910;8.878;2023-12-04T08:52:41;14.38;;;10.35;;
26822;SDS011;14852;51.910;8.878;2023-12-04T08:55:07;14.43;;;9.98;;
26822;SDS011;14852;51.910;8.878;2023-12-04T08:57:33;16.95;;;10.82;;
26822;SDS011;14852;51.910;8.878;2023-12-04T08:59:59;16.75;;;9.50;;
26822;SDS011;14852;51.910;8.878;2023-12-04T09:02:25;15.02;;;10.30;;
26822;SDS011;14852;51.910;8.878;2023-12-04T09:04:50;12.15;;;9.27;;
26822;SDS011;14852;51.910;8.878;2023-12-04T09:07:16;14.57;;;9.32;;
26822;SDS011;14852;51.910;8.878;2023-12-04T09:09:42;13.85;;;9.45;;
26822;SDS011;14852;51.910;8.878;2023-12-04T09:12:09;13.05;;;8.35;;
26822;SDS011;14852;51.910;8.878;2023-12-04T09:14:35;13.90;;;9.85;;
26822;SDS011;14852;51.910;8.878;2023-12-04T09:17:01;14.50;;;9.95;;
26822;SDS011;14852;51.910;8.878;2023-12-04T09:19:28;11.85;;;8.55;;
26822;SDS011;14852;51.910;8.878;2023-12-04T09:21:54;11.77;;;8.73;;
26822;SDS011;14852;51.910;8.878;2023-12-04T09:24:20;12.40;;;9.52;;
26822;SDS011;14852;51.910;8.878;2023-12-04T09:26:46;11.68;;;8.68;;
26822;SDS011;14852;51.910;8.878;2023-12-04T09:29:11;12.90;;;9.20;;
26822;SDS011;14852;51.910;8.878;2023-12-04T09:31:37;13.85;;;9.30;;
26822;SDS011;14852;51.910;8.878;2023-12-04T09:34:03;12.35;;;9.57;;
26822;SDS011;14852;51.910;8.878;2023-12-04T09:36:29;17.23;;;9.77;;
26822;SDS011;14852;51.910;8.878;2023-12-04T09:38:55;16.52;;;10.10;;
26822;SDS011;14852;51.910;8.878;2023-12-04T09:41:20;13.60;;;9.18;;
26822;SDS011;14852;51.910;8.878;2023-12-04T09:43:47;14.85;;;8.80;;
26822;SDS011;14852;51.910;8.878;2023-12-04T09:46:13;14.70;;;9.25;;
26822;SDS011;14852;51.910;8.878;2023-12-04T09:48:41;12.60;;;8.63;;
26822;SDS011;14852;51.910;8.878;2023-12-04T09:51:09;10.82;;;7.60;;
26822;SDS011;14852;51.910;8.878;2023-12-04T09:53:36;11.68;;;9.20;;
26822;SDS011;14852;51.910;8.878;2023-12-04T09:56:05;14.52;;;9.40;;
26822;SDS011;14852;51.910;8.878;2023-12-04T09:58:34;12.18;;;8.20;;
26822;SDS011;14852;51.910;8.878;2023-12-04T10:01:01;15.30;;;8.40;;
26822;SDS011;14852;51.910;8.878;2023-12-04T10:03:27;12.25;;;8.18;;
26822;SDS011;14852;51.910;8.878;2023-12-04T10:05:54;13.85;;;8.52;;
26822;SDS011;14852;51.910;8.878;2023-12-04T10:08:20;13.27;;;8.55;;
26822;SDS011;14852;51.910;8.878;2023-12-04T10:10:46;13.80;;;9.70;;
26822;SDS011;14852;51.910;8.878;2023-12-04T10:13:12;12.27;;;8.25;;
26822;SDS011;14852;51.910;8.878;2023-12-04T10:15:48;13.73;;;9.80;;
26822;SDS011;14852;51.910;8.878;2023-12-04T10:18:47;13.95;;;8.68;;
26822;SDS011;14852;51.910;8.878;2023-12-04T10:21:06;13.63;;;8.55;;
26822;SDS011;14852;51.910;8.878;2023-12-04T10:23:51;12.25;;;9.00;;
26822;SDS011;14852;51.910;8.878;2023-12-04T10:26:16;15.13;;;8.32;;
26822;SDS011;14852;51.910;8.878;2023-12-04T10:28:58;11.00;;;8.07;;
26822;SDS011;14852;51.910;8.878;2023-12-04T10:31:25;13.90;;;7.85;;
26822;SDS011;14852;51.910;8.878;2023-12-04T10:33:51;13.20;;;8.90;;
26822;SDS011;14852;51.910;8.878;2023-12-04T10:36:17;12.77;;;9.32;;
26822;SDS011;14852;51.910;8.878;2023-12-04T10:38:44;12.50;;;7.72;;
26822;SDS011;14852;51.910;8.878;2023-12-04T10:41:13;14.15;;;8.45;;
26822;SDS011;14852;51.910;8.878;2023-12-04T10:43:46;12.57;;;8.18;;
26822;SDS011;14852;51.910;8.878;2023-12-04T10:46:14;11.05;;;7.72;;
26822;SDS011;14852;51.910;8.878;2023-12-04T10:48:43;12.60;;;9.32;;
26822;SDS011;14852;51.910;8.878;2023-12-04T10:51:12;10.20;;;7.53;;
26822;SDS011;14852;51.910;8.878;2023-12-04T10:53:40;14.80;;;9.55;;
26822;SDS011;14852;51.910;8.878;2023-12-04T10:56:09;13.00;;;8.50;;
26822;SDS011;14852;51.910;8.878;2023-12-04T10:58:39;12.77;;;8.95;;
26822;SDS011;14852;51.910;8.878;2023-12-04T11:01:07;13.73;;;8.95;;
26822;SDS011;14852;51.910;8.878;2023-12-04T11:03:49;12.88;;;7.82;;
26822;SDS011;14852;51.910;8.878;2023-12-04T11:06:21;11.13;;;8.75;;
26822;SDS011;14852;51.910;8.878;2023-12-04T11:08:48;11.32;;;8.25;;
26822;SDS011;14852;51.910;8.878;2023-12-04T11:11:19;13.30;;;8.13;;
26822;SDS011;14852;51.910;8.878;2023-12-04T11:13:54;11.60;;;8.18;;
26822;SDS011;14852;51.910;8.878;2023-12-04T11:16:33;11.13;;;8.57;;
26822;SDS011;14852;51.910;8.878;2023-12-04T11:19:18;12.85;;;9.00;;
26822;SDS011;14852;51.910;8.878;2023-12-04T11:21:56;11.32;;;8.00;;
26822;SDS011;14852;51.910;8.878;2023-12-04T11:24:24;11.27;;;7.45;;
26822;SDS011;14852;51.910;8.878;2023-12-04T11:26:50;13.10;;;8.00;;
26822;SDS011;14852;51.910;8.878;2023-12-04T11:29:17;10.57;;;6.57;;
26822;SDS011;14852;51.910;8.878;2023-12-04T11:31:44;12.75;;;8.05;;
26822;SDS011;14852;51.910;8.878;2023-12-04T11:34:11;10.45;;;7.30;;
26822;SDS011;14852;51.910;8.878;2023-12-04T11:36:37;9.95;;;6.95;;
26822;SDS011;14852;51.910;8.878;2023-12-04T11:39:08;12.27;;;8.02;;
26822;SDS011;14852;51.910;8.878;2023-12-04T11:41:38;13.05;;;8.82;;
26822;SDS011;14852;51.910;8.878;2023-12-04T11:44:11;11.23;;;7.57;;
